createdAt,value
2019-01-21T16:17:45.136Z,80.50
2019-01-21T16:20:33.176Z,82.50
2019-01-21T16:23:55.903Z,82.50
2019-01-21T16:26:43.769Z,81.80
2019-01-21T16:29:28.057Z,80.70
2019-01-21T16:32:30.592Z,80.00
2019-01-21T16:35:37.640Z,79.30
2019-01-21T16:38:25.573Z,78.60
2019-01-21T16:41:35.599Z,77.70
2019-01-21T16:44:05.176Z,77.10
2019-01-21T16:46:34.776Z,76.20
2019-01-21T16:49:04.337Z,75.90
2019-01-21T16:51:33.963Z,76.60
2019-01-21T16:54:03.524Z,75.40
2019-01-21T16:56:33.127Z,75.20
2019-01-21T16:59:02.737Z,75.00
2019-01-21T17:01:32.347Z,74.70
2019-01-21T17:04:01.948Z,74.50
2019-01-21T17:06:31.508Z,74.30
2019-01-21T17:09:01.109Z,74.10
2019-01-21T17:11:30.827Z,73.90
2019-01-21T17:14:00.430Z,73.60
2019-01-21T17:16:29.984Z,73.40
2019-01-21T17:18:59.601Z,73.30
2019-01-21T17:21:29.161Z,73.10
2019-01-21T17:23:58.766Z,73.00
2019-01-21T17:26:28.328Z,72.90
2019-01-21T17:28:57.926Z,72.70
2019-01-21T17:31:27.500Z,72.60
2019-01-21T17:33:57.104Z,72.30
2019-01-21T17:36:26.681Z,72.30
2019-01-21T17:38:56.317Z,72.30
2019-01-21T17:41:25.923Z,72.20
2019-01-21T17:43:55.489Z,72.30
2019-01-21T17:46:25.088Z,72.20
2019-01-21T17:48:54.653Z,71.80
2019-01-21T17:51:24.364Z,71.90
2019-01-21T17:53:53.923Z,71.90
2019-01-21T17:56:23.584Z,71.90
2019-01-21T17:58:53.162Z,71.70
2019-01-21T18:01:22.771Z,71.70
2019-01-21T18:03:52.380Z,71.50
2019-01-21T18:06:22.872Z,71.50
2019-01-21T18:08:52.435Z,71.50
2019-01-21T18:11:22.039Z,71.50
2019-01-21T18:13:51.628Z,71.40
2019-01-21T18:16:21.183Z,71.30
2019-01-21T18:18:50.797Z,71.20
2019-01-21T18:21:20.351Z,71.10
2019-01-21T18:23:49.949Z,71.00
2019-01-21T18:26:19.503Z,71.00
2019-01-21T18:28:49.113Z,71.00
2019-01-21T18:31:18.697Z,70.90
2019-01-21T18:33:48.297Z,70.90
2019-01-21T18:36:17.860Z,70.90
2019-01-21T18:38:47.472Z,70.90
2019-01-21T18:41:17.044Z,71.70
2019-01-21T18:43:46.647Z,70.80
2019-01-21T18:46:16.272Z,70.80
2019-01-21T18:48:45.821Z,70.70
2019-01-21T18:51:15.438Z,70.60
2019-01-21T18:53:45.023Z,70.60
2019-01-21T18:56:14.669Z,70.90
2019-01-21T18:58:44.259Z,70.30
2019-01-21T19:01:13.862Z,70.40
2019-01-21T19:03:43.420Z,70.20
2019-01-21T19:06:13.188Z,70.20
2019-01-21T19:08:42.904Z,70.10
2019-01-21T19:11:13.055Z,70.10
2019-01-21T19:13:42.601Z,69.90
2019-01-21T19:16:12.214Z,70.00
2019-01-21T19:18:41.824Z,70.00
2019-01-21T19:21:11.391Z,70.00
2019-01-21T19:23:44.163Z,70.10
2019-01-21T19:26:13.878Z,70.00
2019-01-21T19:28:43.720Z,70.00
2019-01-21T19:31:13.336Z,69.90
2019-01-21T19:33:43.041Z,70.00
2019-01-21T19:36:12.680Z,70.00
2019-01-21T19:38:42.298Z,70.00
2019-01-21T19:41:11.900Z,69.80
2019-01-21T19:43:41.511Z,69.80
2019-01-21T19:46:11.083Z,69.80
2019-01-21T19:48:40.787Z,69.90
2019-01-21T19:51:10.359Z,69.70
2019-01-21T19:53:39.916Z,69.70
2019-01-21T19:56:09.524Z,69.80
2019-01-21T19:58:39.080Z,69.70
2019-01-21T20:01:08.810Z,69.60
2019-01-21T20:03:38.377Z,69.50
2019-01-21T20:06:08.040Z,69.60
2019-01-21T20:08:37.600Z,69.70
2019-01-21T20:11:07.200Z,69.80
2019-01-21T20:13:36.769Z,69.90
2019-01-21T20:16:06.377Z,69.80
2019-01-21T20:18:35.953Z,69.80
2019-01-21T20:21:05.552Z,69.80
2019-01-21T20:23:35.151Z,69.80
2019-01-21T20:26:04.730Z,69.60
2019-01-21T20:28:34.339Z,70.60
2019-01-21T20:31:03.932Z,69.70
2019-01-21T20:33:33.528Z,69.60
2019-01-21T20:36:03.134Z,69.80
2019-01-21T20:38:33.048Z,69.50
2019-01-21T20:41:02.604Z,69.40
2019-01-21T20:43:32.252Z,69.40
2019-01-21T20:46:01.906Z,69.50
2019-01-21T20:48:31.525Z,69.30
2019-01-21T20:51:01.088Z,69.20
2019-01-21T20:53:30.752Z,69.20
2019-01-21T20:56:00.348Z,69.40
2019-01-21T20:58:29.959Z,69.40
2019-01-21T21:00:59.495Z,69.40
2019-01-21T21:03:29.056Z,69.30
2019-01-21T21:05:58.691Z,69.40
2019-01-21T21:08:28.233Z,69.30
2019-01-21T21:10:57.915Z,69.40
2019-01-21T21:13:27.491Z,69.40
2019-01-21T21:15:57.076Z,69.30
2019-01-21T21:18:26.797Z,69.30
2019-01-21T21:20:56.419Z,69.30
2019-01-21T21:23:25.971Z,69.00
2019-01-21T21:25:55.558Z,68.90
2019-01-21T21:28:25.111Z,69.00
2019-01-21T21:30:54.691Z,69.10
2019-01-21T21:33:24.229Z,69.30
2019-01-21T21:35:53.812Z,69.30
2019-01-21T21:38:23.351Z,69.30
2019-01-21T21:40:52.935Z,69.40
2019-01-21T21:43:22.767Z,69.40
2019-01-21T21:45:52.355Z,69.50
2019-01-21T21:48:21.993Z,69.50
2019-01-21T21:50:51.575Z,69.50
2019-01-21T21:53:21.551Z,69.40
2019-01-21T21:55:51.463Z,69.30
2019-01-21T21:58:21.012Z,69.30
2019-01-21T22:00:50.607Z,69.30
2019-01-21T22:03:20.148Z,69.30
2019-01-21T22:05:49.956Z,69.10
2019-01-21T22:08:20.309Z,68.80
2019-01-21T22:10:49.857Z,68.90
2019-01-21T22:13:19.440Z,68.90
2019-01-21T22:15:48.988Z,68.90
2019-01-21T22:18:18.595Z,68.90
2019-01-21T22:20:48.556Z,69.10
2019-01-21T22:23:18.142Z,69.20
2019-01-21T22:25:47.748Z,69.00
2019-01-21T22:28:17.369Z,68.90
2019-01-21T22:30:46.927Z,68.90
2019-01-21T22:33:16.940Z,69.10
2019-01-21T22:35:46.496Z,69.30
2019-01-21T22:38:16.089Z,69.30
2019-01-21T22:40:45.721Z,69.20
2019-01-21T22:43:15.283Z,69.10
2019-01-21T22:45:45.314Z,69.00
2019-01-21T22:48:14.880Z,69.10
2019-01-21T22:50:44.481Z,69.00
2019-01-21T22:53:14.129Z,68.90
2019-01-21T22:55:43.745Z,68.80
2019-01-21T22:58:13.412Z,68.60
2019-01-21T23:01:20.090Z,68.60
2019-01-21T23:03:50.109Z,69.00
2019-01-21T23:06:19.764Z,68.50
2019-01-21T23:08:49.333Z,68.60
2019-01-21T23:11:18.947Z,68.60
2019-01-21T23:13:48.513Z,68.60
2019-01-21T23:16:18.533Z,69.30
2019-01-21T23:18:48.120Z,68.60
2019-01-21T23:21:17.740Z,68.70
2019-01-21T23:23:47.304Z,68.70
2019-01-21T23:26:16.877Z,68.70
2019-01-21T23:28:46.793Z,68.40
2019-01-21T23:31:16.348Z,68.40
2019-01-21T23:33:45.999Z,68.60
2019-01-21T23:36:15.556Z,68.60
2019-01-21T23:38:45.160Z,68.40
2019-01-21T23:41:14.720Z,68.20
2019-01-21T23:43:44.329Z,68.40
2019-01-21T23:46:13.889Z,68.70
2019-01-21T23:48:43.512Z,68.90
2019-01-21T23:51:13.084Z,68.90
2019-01-21T23:53:42.691Z,68.70
2019-01-21T23:56:12.597Z,68.70
2019-01-21T23:58:42.168Z,68.60
